createdAt,value
2016-05-27T00:00:59.702Z,1007.22
2016-05-27T00:01:59.689Z,1007.22
2016-05-27T00:02:59.676Z,1007.24
2016-05-27T00:04:00.492Z,1007.24
2016-05-27T00:04:59.650Z,1007.23
2016-05-27T00:05:59.637Z,1007.23
2016-05-27T00:06:59.625Z,1007.23
2016-05-27T00:07:59.611Z,1007.24
2016-05-27T00:08:59.599Z,1007.22
2016-05-27T00:09:59.586Z,1007.21
2016-05-27T00:10:59.572Z,1007.25
2016-05-27T00:11:59.560Z,1007.23
2016-05-27T00:12:59.546Z,1007.24
2016-05-27T00:13:59.534Z,1007.22
2016-05-27T00:14:59.521Z,1007.21
2016-05-27T00:15:59.507Z,1007.2
2016-05-27T00:16:59.495Z,1007.17
2016-05-27T00:17:59.498Z,1007.18
2016-05-27T00:18:59.485Z,1007.13
2016-05-27T00:19:59.457Z,1007.16
2016-05-27T00:20:59.443Z,1007.14
2016-05-27T00:21:59.429Z,1007.04
2016-05-27T00:22:59.417Z,1007.08
2016-05-27T00:23:59.405Z,1007.03
2016-05-27T00:24:59.407Z,1007.02
2016-05-27T00:25:59.379Z,1007
2016-05-27T00:26:59.381Z,1006.94
2016-05-27T00:27:59.353Z,1006.95
2016-05-27T00:28:59.355Z,1006.96
2016-05-27T00:29:59.342Z,1006.95
2016-05-27T00:30:59.329Z,1006.96
2016-05-27T00:31:59.317Z,1006.98
2016-05-27T00:32:59.288Z,1007
2016-05-27T00:33:59.291Z,1007.02
2016-05-27T00:34:59.277Z,1007.06
2016-05-27T00:35:59.264Z,1007.05
2016-05-27T00:36:59.252Z,1007.08
2016-05-27T00:37:59.239Z,1007.1
2016-05-27T00:38:59.225Z,1007.13
2016-05-27T00:39:59.213Z,1007.13
2016-05-27T00:40:59.200Z,1007.1
2016-05-27T00:41:59.187Z,1007.08
2016-05-27T00:42:59.174Z,1007.02
2016-05-27T00:43:59.161Z,1007.03
2016-05-27T00:44:59.149Z,1007.06
2016-05-27T00:45:59.135Z,1007.03
2016-05-27T00:46:59.122Z,1007
2016-05-27T00:47:59.109Z,1007.04
2016-05-27T00:48:59.097Z,1007
2016-05-27T00:49:59.084Z,1007.02
2016-05-27T00:50:59.071Z,1007.02
2016-05-27T00:51:59.057Z,1007.03
2016-05-27T00:52:59.045Z,1007.03
2016-05-27T00:53:59.032Z,1007.07
2016-05-27T00:54:59.018Z,1007.04
2016-05-27T00:55:59.006Z,1007.08
2016-05-27T00:56:58.993Z,1007.08
2016-05-27T00:57:58.980Z,1007.11
2016-05-27T00:58:58.968Z,1007.1
2016-05-27T00:59:58.954Z,1007.07
2016-05-27T01:00:58.941Z,1007.13
2016-05-27T01:01:58.929Z,1007.08
2016-05-27T01:02:58.915Z,1007.13
2016-05-27T01:03:58.903Z,1007.13
2016-05-27T01:04:58.889Z,1007.12
2016-05-27T01:05:58.877Z,1007.15
2016-05-27T01:06:58.880Z,1007.17
2016-05-27T01:07:58.850Z,1007.1
2016-05-27T01:08:58.838Z,1007.12
2016-05-27T01:09:58.824Z,1007.08
2016-05-27T01:10:58.811Z,1007.13
2016-05-27T01:11:58.799Z,1007.12
2016-05-27T01:12:58.802Z,1007.13
2016-05-27T01:13:58.774Z,1007.12
2016-05-27T01:14:58.776Z,1007.11
2016-05-27T01:15:58.760Z,1007.12
2016-05-27T01:16:58.747Z,1007.11
2016-05-27T01:17:58.735Z,1007.06
2016-05-27T01:18:58.722Z,1007.12
2016-05-27T01:19:58.708Z,1007.07
2016-05-27T01:20:58.696Z,1007.13
2016-05-27T01:21:58.682Z,1007.1
2016-05-27T01:22:58.671Z,1007.11
2016-05-27T01:23:58.656Z,1007.11
2016-05-27T01:24:58.643Z,1007.09
2016-05-27T01:25:58.631Z,1007.11
2016-05-27T01:26:58.618Z,1007.13
2016-05-27T01:27:58.605Z,1007.09
2016-05-27T01:28:58.608Z,1007.11
2016-05-27T01:29:58.579Z,1007.15
2016-05-27T01:30:58.567Z,1007.16
2016-05-27T01:31:58.553Z,1007.18
2016-05-27T01:32:58.540Z,1007.22
2016-05-27T01:33:58.653Z,1007.23
2016-05-27T01:34:58.515Z,1007.22
2016-05-27T01:35:58.501Z,1007.32
2016-05-27T01:36:58.503Z,1007.28
2016-05-27T01:37:58.476Z,1007.28
2016-05-27T01:38:58.463Z,1007.32
2016-05-27T01:39:58.450Z,1007.27
2016-05-27T01:40:58.436Z,1007.31
2016-05-27T01:41:58.439Z,1007.31
2016-05-27T01:42:58.411Z,1007.31
2016-05-27T01:43:58.398Z,1007.3
2016-05-27T01:44:58.385Z,1007.31
2016-05-27T01:45:58.372Z,1007.34
2016-05-27T01:46:58.360Z,1007.3
2016-05-27T01:47:58.362Z,1007.33
2016-05-27T01:48:58.349Z,1007.28
2016-05-27T01:49:58.323Z,1007.31
2016-05-27T01:50:58.345Z,1007.29
2016-05-27T01:51:58.351Z,1007.27
2016-05-27T01:52:58.357Z,1007.26
2016-05-27T01:53:58.364Z,1007.28
2016-05-27T01:54:58.368Z,1007.24
2016-05-27T01:55:58.363Z,1007.27
2016-05-27T01:56:58.356Z,1007.23
2016-05-27T01:57:58.350Z,1007.24
2016-05-27T01:58:58.345Z,1007.28
2016-05-27T01:59:58.337Z,1007.29
2016-05-27T02:00:58.327Z,1007.3
2016-05-27T02:01:58.318Z,1007.29
2016-05-27T02:02:58.306Z,1007.31
2016-05-27T02:03:58.297Z,1007.27
2016-05-27T02:04:58.286Z,1007.28
2016-05-27T02:05:58.273Z,1007.29
2016-05-27T02:06:58.262Z,1007.29
2016-05-27T02:07:58.250Z,1007.27
2016-05-27T02:08:58.238Z,1007.26
2016-05-27T02:09:58.240Z,1007.28
2016-05-27T02:10:58.213Z,1007.19
2016-05-27T02:11:58.200Z,1007.21
2016-05-27T02:12:58.188Z,1007.21
2016-05-27T02:13:58.175Z,1007.21
2016-05-27T02:14:58.162Z,1007.2
2016-05-27T02:15:58.149Z,1007.18
2016-05-27T02:16:58.136Z,1007.16
2016-05-27T02:17:58.124Z,1007.19
2016-05-27T02:18:58.111Z,1007.18
2016-05-27T02:19:58.114Z,1007.21
2016-05-27T02:20:58.085Z,1007.21
2016-05-27T02:21:58.071Z,1007.22
2016-05-27T02:22:58.059Z,1007.26
2016-05-27T02:23:58.062Z,1007.23
2016-05-27T02:24:58.049Z,1007.25
2016-05-27T02:25:58.035Z,1007.27
2016-05-27T02:26:58.007Z,1007.26
2016-05-27T02:27:57.994Z,1007.26
2016-05-27T02:28:57.997Z,1007.26
2016-05-27T02:29:57.984Z,1007.23
2016-05-27T02:30:57.971Z,1007.24
2016-05-27T02:31:57.942Z,1007.18
2016-05-27T02:32:57.945Z,1007.23
2016-05-27T02:33:57.931Z,1007.23
2016-05-27T02:34:57.920Z,1007.18
2016-05-27T02:35:57.906Z,1007.21
2016-05-27T02:36:57.894Z,1007.22
2016-05-27T02:37:57.880Z,1007.21
2016-05-27T02:38:57.868Z,1007.21
2016-05-27T02:39:57.855Z,1007.22
2016-05-27T02:40:57.841Z,1007.28
2016-05-27T02:41:57.828Z,1007.27
2016-05-27T02:42:57.816Z,1007.23
2016-05-27T02:43:57.803Z,1007.27
2016-05-27T02:44:57.791Z,1007.28
2016-05-27T02:45:57.777Z,1007.28
2016-05-27T02:46:57.763Z,1007.34
2016-05-27T02:47:57.751Z,1007.31
2016-05-27T02:48:57.754Z,1007.31
2016-05-27T02:49:57.725Z,1007.35
2016-05-27T02:50:57.713Z,1007.35
2016-05-27T02:51:57.699Z,1007.36
2016-05-27T02:52:57.687Z,1007.34
2016-05-27T02:53:57.690Z,1007.34
2016-05-27T02:54:57.660Z,1007.32
2016-05-27T02:55:57.679Z,1007.36
2016-05-27T02:56:57.635Z,1007.29
2016-05-27T02:57:57.621Z,1007.29
2016-05-27T02:58:57.609Z,1007.28
2016-05-27T02:59:57.596Z,1007.28
2016-05-27T03:00:57.584Z,1007.28
2016-05-27T03:01:57.571Z,1007.26
2016-05-27T03:02:57.557Z,1007.25
2016-05-27T03:03:57.560Z,1007.18
2016-05-27T03:04:57.531Z,1007.23
2016-05-27T03:05:57.518Z,1007.2
2016-05-27T03:06:57.506Z,1007.2
2016-05-27T03:07:57.493Z,1007.23
2016-05-27T03:08:57.480Z,1007.2
2016-05-27T03:09:57.467Z,1007.18
2016-05-27T03:10:57.454Z,1007.19
2016-05-27T03:11:57.441Z,1007.19
2016-05-27T03:12:57.428Z,1007.2
2016-05-27T03:13:57.414Z,1007.2
2016-05-27T03:14:57.403Z,1007.23
2016-05-27T03:15:57.389Z,1007.27
2016-05-27T03:16:57.408Z,1007.25
2016-05-27T03:17:57.379Z,1007.32
2016-05-27T03:18:57.350Z,1007.36
2016-05-27T03:19:57.338Z,1007.35
2016-05-27T03:20:57.341Z,1007.34
2016-05-27T03:21:57.327Z,1007.35
2016-05-27T03:22:57.314Z,1007.32
2016-05-27T03:23:57.302Z,1007.37
2016-05-27T03:24:57.288Z,1007.37
2016-05-27T03:25:57.276Z,1007.33
2016-05-27T03:26:57.262Z,1007.36
2016-05-27T03:27:57.249Z,1007.41
2016-05-27T03:28:57.237Z,1007.41
2016-05-27T03:29:57.224Z,1007.38
2016-05-27T03:30:57.210Z,1007.4
2016-05-27T03:31:57.198Z,1007.42
2016-05-27T03:32:57.185Z,1007.46
2016-05-27T03:33:57.234Z,1007.44
2016-05-27T03:34:57.159Z,1007.44
2016-05-27T03:35:57.146Z,1007.46
2016-05-27T03:36:57.133Z,1007.45
2016-05-27T03:37:57.120Z,1007.45
2016-05-27T03:38:57.107Z,1007.48
2016-05-27T03:39:57.094Z,1007.44
2016-05-27T03:40:57.081Z,1007.44
2016-05-27T03:41:57.069Z,1007.46
2016-05-27T03:42:57.056Z,1007.46
2016-05-27T03:43:57.042Z,1007.46
2016-05-27T03:44:57.030Z,1007.44
2016-05-27T03:45:57.017Z,1007.48
2016-05-27T03:46:57.003Z,1007.48
2016-05-27T03:47:56.991Z,1007.47
2016-05-27T03:48:56.978Z,1007.52
2016-05-27T03:49:56.965Z,1007.53
2016-05-27T03:50:56.952Z,1007.51
2016-05-27T03:51:56.939Z,1007.53
2016-05-27T03:52:56.926Z,1007.59
2016-05-27T03:53:56.897Z,1007.58
2016-05-27T03:54:56.900Z,1007.57
2016-05-27T03:55:56.887Z,1007.59
2016-05-27T03:56:56.874Z,1007.59
2016-05-27T03:57:56.862Z,1007.64
2016-05-27T03:58:56.848Z,1007.63
2016-05-27T03:59:56.835Z,1007.66
2016-05-27T04:00:56.823Z,1007.67
2016-05-27T04:01:56.809Z,1007.69
2016-05-27T04:02:56.796Z,1007.75
2016-05-27T04:03:56.784Z,1007.73
2016-05-27T04:04:56.771Z,1007.77
2016-05-27T04:05:56.758Z,1007.76
2016-05-27T04:06:56.745Z,1007.79
2016-05-27T04:07:56.732Z,1007.8
2016-05-27T04:08:56.719Z,1007.83
2016-05-27T04:09:56.706Z,1007.81
2016-05-27T04:10:56.693Z,1007.79
2016-05-27T04:11:56.681Z,1007.79
2016-05-27T04:12:56.667Z,1007.79
2016-05-27T04:13:56.655Z,1007.75
2016-05-27T04:14:56.641Z,1007.72
2016-05-27T04:15:56.628Z,1007.75
2016-05-27T04:16:56.616Z,1007.73
2016-05-27T04:17:56.619Z,1007.74
2016-05-27T04:18:56.808Z,1007.69
2016-05-27T04:19:56.577Z,1007.68
2016-05-27T04:20:56.564Z,1007.64
2016-05-27T04:21:56.551Z,1007.65
2016-05-27T04:22:56.538Z,1007.64
2016-05-27T04:23:56.525Z,1007.65
2016-05-27T04:24:56.527Z,1007.61
2016-05-27T04:25:56.500Z,1007.65
2016-05-27T04:26:56.486Z,1007.59
2016-05-27T04:27:56.473Z,1007.62
2016-05-27T04:28:56.460Z,1007.61
2016-05-27T04:29:56.448Z,1007.58
2016-05-27T04:30:56.434Z,1007.58
2016-05-27T04:31:56.421Z,1007.59
2016-05-27T04:32:56.409Z,1007.58
2016-05-27T04:33:56.395Z,1007.6
2016-05-27T04:34:56.398Z,1007.6
2016-05-27T04:35:56.370Z,1007.62
2016-05-27T04:36:56.356Z,1007.65
2016-05-27T04:37:56.344Z,1007.64
2016-05-27T04:38:56.347Z,1007.67
2016-05-27T04:39:56.318Z,1007.61
2016-05-27T04:40:56.305Z,1007.62
2016-05-27T04:41:56.292Z,1007.59
2016-05-27T04:42:56.279Z,1007.59
2016-05-27T04:43:56.267Z,1007.57
2016-05-27T04:44:56.253Z,1007.59
2016-05-27T04:45:56.256Z,1007.56
2016-05-27T04:46:56.228Z,1007.56
2016-05-27T04:47:56.214Z,1007.6
2016-05-27T04:48:56.514Z,1007.55
2016-05-27T04:49:56.188Z,1007.55
2016-05-27T04:50:56.175Z,1007.54
2016-05-27T04:51:56.163Z,1007.54
2016-05-27T04:52:56.150Z,1007.53
2016-05-27T04:53:56.137Z,1007.59
2016-05-27T04:54:56.124Z,1007.6
2016-05-27T04:55:56.111Z,1007.59
2016-05-27T04:56:56.098Z,1007.61
2016-05-27T04:57:56.085Z,1007.57
2016-05-27T04:58:56.088Z,1007.59
2016-05-27T04:59:56.075Z,1007.64
2016-05-27T05:00:56.046Z,1007.64
2016-05-27T05:01:56.034Z,1007.63
2016-05-27T05:02:56.020Z,1007.63
2016-05-27T05:03:56.226Z,1007.62
2016-05-27T05:04:55.995Z,1007.63
2016-05-27T05:05:55.981Z,1007.63
2016-05-27T05:06:55.968Z,1007.64
2016-05-27T05:07:55.956Z,1007.66
2016-05-27T05:08:55.943Z,1007.65
2016-05-27T05:09:55.930Z,1007.67
2016-05-27T05:10:55.917Z,1007.65
2016-05-27T05:11:55.920Z,1007.68
2016-05-27T05:12:55.892Z,1007.64
2016-05-27T05:13:55.879Z,1007.61
2016-05-27T05:14:55.865Z,1007.6
2016-05-27T05:15:55.853Z,1007.6
2016-05-27T05:16:55.839Z,1007.62
2016-05-27T05:17:55.827Z,1007.61
2016-05-27T05:18:55.814Z,1007.58
2016-05-27T05:19:55.800Z,1007.6
2016-05-27T05:20:55.803Z,1007.59
2016-05-27T05:21:55.790Z,1007.59
2016-05-27T05:22:55.777Z,1007.6
2016-05-27T05:23:55.764Z,1007.53
2016-05-27T05:24:55.752Z,1007.54
2016-05-27T05:25:55.738Z,1007.53
2016-05-27T05:26:55.726Z,1007.52
2016-05-27T05:27:55.713Z,1007.51
2016-05-27T05:28:55.700Z,1007.47
2016-05-27T05:29:55.688Z,1007.5
2016-05-27T05:30:55.673Z,1007.43
2016-05-27T05:31:55.661Z,1007.47
2016-05-27T05:32:55.649Z,1007.45
2016-05-27T05:33:55.635Z,1007.46
2016-05-27T05:34:55.623Z,1007.48
2016-05-27T05:35:55.610Z,1007.48
2016-05-27T05:36:55.596Z,1007.49
2016-05-27T05:37:55.584Z,1007.45
2016-05-27T05:38:55.571Z,1007.46
2016-05-27T05:39:55.557Z,1007.49
2016-05-27T05:40:55.545Z,1007.49
2016-05-27T05:41:55.531Z,1007.51
2016-05-27T05:42:55.520Z,1007.53
2016-05-27T05:43:55.506Z,1007.49
2016-05-27T05:44:55.492Z,1007.51
2016-05-27T05:45:55.480Z,1007.51
2016-05-27T05:46:55.467Z,1007.5
2016-05-27T05:47:55.453Z,1007.47
2016-05-27T05:48:55.441Z,1007.49
2016-05-27T05:49:55.428Z,1007.52
2016-05-27T05:50:55.416Z,1007.5
2016-05-27T05:51:55.402Z,1007.5
2016-05-27T05:52:55.389Z,1007.51
2016-05-27T05:53:55.376Z,1007.5
2016-05-27T05:54:55.364Z,1007.52
2016-05-27T05:55:55.350Z,1007.5
2016-05-27T05:56:55.338Z,1007.49
2016-05-27T05:57:55.324Z,1007.52
2016-05-27T05:58:55.312Z,1007.53
2016-05-27T05:59:55.299Z,1007.5
2016-05-27T06:00:55.286Z,1007.52
2016-05-27T06:01:55.274Z,1007.54
2016-05-27T06:02:55.260Z,1007.51
2016-05-27T06:03:55.247Z,1007.55
2016-05-27T06:04:55.234Z,1007.52
2016-05-27T06:05:55.221Z,1007.54
2016-05-27T06:06:55.209Z,1007.55
2016-05-27T06:07:55.196Z,1007.53
2016-05-27T06:08:55.182Z,1007.53
2016-05-27T06:09:55.170Z,1007.52
2016-05-27T06:10:55.157Z,1007.56
2016-05-27T06:11:55.143Z,1007.55
2016-05-27T06:12:55.145Z,1007.54
2016-05-27T06:13:55.118Z,1007.57
2016-05-27T06:14:55.105Z,1007.56
2016-05-27T06:15:55.092Z,1007.55
2016-05-27T06:16:55.078Z,1007.51
2016-05-27T06:17:55.067Z,1007.54
2016-05-27T06:18:55.053Z,1007.51
2016-05-27T06:19:55.039Z,1007.49
2016-05-27T06:20:55.028Z,1007.47
2016-05-27T06:21:55.014Z,1007.47
2016-05-27T06:22:55.017Z,1007.49
2016-05-27T06:23:54.988Z,1007.49
2016-05-27T06:24:54.975Z,1007.49
2016-05-27T06:25:54.978Z,1007.49
2016-05-27T06:26:54.949Z,1007.51
2016-05-27T06:27:54.936Z,1007.5
2016-05-27T06:28:54.924Z,1007.55
2016-05-27T06:29:54.911Z,1007.56
2016-05-27T06:30:54.898Z,1007.55
2016-05-27T06:31:54.885Z,1007.58
2016-05-27T06:32:54.872Z,1007.58
2016-05-27T06:33:54.859Z,1007.6
2016-05-27T06:34:54.862Z,1007.67
2016-05-27T06:35:54.833Z,1007.65
2016-05-27T06:36:54.835Z,1007.63
2016-05-27T06:37:54.823Z,1007.64
2016-05-27T06:38:54.810Z,1007.6
2016-05-27T06:39:54.781Z,1007.6
2016-05-27T06:40:54.769Z,1007.61
2016-05-27T06:41:54.771Z,1007.61
2016-05-27T06:42:54.758Z,1007.64
2016-05-27T06:43:54.746Z,1007.62
2016-05-27T06:44:54.732Z,1007.65
2016-05-27T06:45:54.719Z,1007.69
2016-05-27T06:46:54.706Z,1007.69
2016-05-27T06:47:54.694Z,1007.69
2016-05-27T06:48:54.681Z,1007.68
2016-05-27T06:49:54.667Z,1007.71
2016-05-27T06:50:54.655Z,1007.67
2016-05-27T06:51:54.642Z,1007.68
2016-05-27T06:52:54.628Z,1007.75
2016-05-27T06:53:54.616Z,1007.72
2016-05-27T06:54:54.603Z,1007.74
2016-05-27T06:55:54.590Z,1007.76
2016-05-27T06:56:54.578Z,1007.75
2016-05-27T06:57:54.564Z,1007.75
2016-05-27T06:58:54.552Z,1007.76
2016-05-27T06:59:54.538Z,1007.75
2016-05-27T07:00:54.524Z,1007.74
2016-05-27T07:01:54.513Z,1007.77
2016-05-27T07:02:54.516Z,1007.79
2016-05-27T07:03:54.690Z,1007.8
2016-05-27T07:04:54.489Z,1007.77
2016-05-27T07:05:54.461Z,1007.79
2016-05-27T07:06:54.448Z,1007.82
2016-05-27T07:07:54.434Z,1007.8
2016-05-27T07:08:54.422Z,1007.8
2016-05-27T07:09:54.409Z,1007.81
2016-05-27T07:10:54.396Z,1007.76
2016-05-27T07:11:54.383Z,1007.79
2016-05-27T07:12:54.370Z,1007.77
2016-05-27T07:13:54.373Z,1007.77
2016-05-27T07:14:54.344Z,1007.76
2016-05-27T07:15:54.347Z,1007.69
2016-05-27T07:16:54.318Z,1007.73
2016-05-27T07:17:54.320Z,1007.68
2016-05-27T07:18:54.293Z,1007.69
2016-05-27T07:19:54.311Z,1007.74
2016-05-27T07:20:54.283Z,1007.67
2016-05-27T07:21:54.269Z,1007.67
2016-05-27T07:22:54.257Z,1007.69
2016-05-27T07:23:54.244Z,1007.69
2016-05-27T07:24:54.230Z,1007.68
2016-05-27T07:25:54.217Z,1007.69
2016-05-27T07:26:54.205Z,1007.68
2016-05-27T07:27:54.192Z,1007.66
2016-05-27T07:28:54.179Z,1007.7
2016-05-27T07:29:54.166Z,1007.69
2016-05-27T07:30:54.153Z,1007.72
2016-05-27T07:31:54.141Z,1007.74
2016-05-27T07:32:54.127Z,1007.76
2016-05-27T07:33:54.113Z,1007.74
2016-05-27T07:34:54.102Z,1007.77
2016-05-27T07:35:54.104Z,1007.78
2016-05-27T07:36:54.076Z,1007.79
2016-05-27T07:37:54.063Z,1007.77
2016-05-27T07:38:54.065Z,1007.79
2016-05-27T07:39:54.051Z,1007.77
2016-05-27T07:40:54.040Z,1007.8
2016-05-27T07:41:54.026Z,1007.81
2016-05-27T07:42:54.013Z,1007.8
2016-05-27T07:43:54.000Z,1007.81
2016-05-27T07:44:53.988Z,1007.78
2016-05-27T07:45:53.974Z,1007.77
2016-05-27T07:46:53.962Z,1007.8
2016-05-27T07:47:53.949Z,1007.83
2016-05-27T07:48:53.967Z,1007.83
2016-05-27T07:49:53.938Z,1007.78
2016-05-27T07:50:53.926Z,1007.79
2016-05-27T07:51:53.912Z,1007.79
2016-05-27T07:52:53.914Z,1007.8
2016-05-27T07:53:53.886Z,1007.81
2016-05-27T07:54:53.874Z,1007.82
2016-05-27T07:55:53.860Z,1007.81
2016-05-27T07:56:53.863Z,1007.79
2016-05-27T07:57:53.850Z,1007.79
2016-05-27T07:58:53.822Z,1007.79
2016-05-27T07:59:53.824Z,1007.81
2016-05-27T08:00:53.812Z,1007.79
2016-05-27T08:01:53.799Z,1007.82
2016-05-27T08:02:53.785Z,1007.83
2016-05-27T08:03:53.976Z,1007.86
2016-05-27T08:04:53.776Z,1007.82
2016-05-27T08:05:53.747Z,1007.84
2016-05-27T08:06:53.749Z,1007.81
2016-05-27T08:07:53.737Z,1007.78
2016-05-27T08:08:53.723Z,1007.79
2016-05-27T08:09:53.711Z,1007.76
2016-05-27T08:10:53.698Z,1007.75
2016-05-27T08:11:53.685Z,1007.76
2016-05-27T08:12:53.672Z,1007.77
2016-05-27T08:13:53.676Z,1007.8
2016-05-27T08:14:53.662Z,1007.78
2016-05-27T08:15:53.649Z,1007.79
2016-05-27T08:16:53.636Z,1007.82
2016-05-27T08:17:53.639Z,1007.8
2016-05-27T08:18:53.860Z,1007.77
2016-05-27T08:19:53.612Z,1007.78
2016-05-27T08:20:53.600Z,1007.84
2016-05-27T08:21:53.587Z,1007.81
2016-05-27T08:22:53.574Z,1007.83
2016-05-27T08:23:53.562Z,1007.86
2016-05-27T08:24:53.564Z,1007.86
2016-05-27T08:25:53.550Z,1007.85
2016-05-27T08:26:53.538Z,1007.95
2016-05-27T08:27:53.525Z,1007.93
2016-05-27T08:28:53.512Z,1007.94
2016-05-27T08:29:53.499Z,1007.96
2016-05-27T08:30:53.502Z,1007.98
2016-05-27T08:31:53.489Z,1007.97
2016-05-27T08:32:53.476Z,1008
2016-05-27T08:33:53.666Z,1007.97
2016-05-27T08:34:53.903Z,1007.99
2016-05-27T08:35:53.453Z,1008
2016-05-27T08:36:53.440Z,1007.97
2016-05-27T08:37:53.443Z,1007.95
2016-05-27T08:38:53.429Z,1007.98
2016-05-27T08:39:53.416Z,1007.96
2016-05-27T08:40:53.404Z,1007.99
2016-05-27T08:41:53.407Z,1007.97
2016-05-27T08:42:53.393Z,1007.94
2016-05-27T08:43:53.381Z,1008.01
2016-05-27T08:44:53.384Z,1008.01
2016-05-27T08:45:53.370Z,1007.99
2016-05-27T08:46:53.357Z,1008.04
2016-05-27T08:47:53.345Z,1008.07
2016-05-27T08:48:53.347Z,1008.04
2016-05-27T08:49:53.334Z,1008.03
2016-05-27T08:50:53.321Z,1008.07
2016-05-27T08:51:53.309Z,1008.03
2016-05-27T08:52:53.312Z,1008.01
2016-05-27T08:53:53.298Z,1008
2016-05-27T08:54:53.286Z,1008.02
2016-05-27T08:55:53.288Z,1008
2016-05-27T08:56:53.275Z,1008.02
2016-05-27T08:57:53.262Z,1007.99
2016-05-27T08:58:53.249Z,1008
2016-05-27T08:59:53.252Z,1008.04
2016-05-27T09:00:53.238Z,1008.01
2016-05-27T09:01:53.226Z,1008
2016-05-27T09:02:53.228Z,1007.97
2016-05-27T09:03:53.919Z,1007.96
2016-05-27T09:04:53.203Z,1007.94
2016-05-27T09:05:53.190Z,1007.93
2016-05-27T09:06:53.177Z,1007.91
2016-05-27T09:07:53.180Z,1007.94
2016-05-27T09:08:53.166Z,1007.94
2016-05-27T09:09:53.154Z,1007.92
2016-05-27T09:10:53.141Z,1007.95
2016-05-27T09:11:53.143Z,1007.93
2016-05-27T09:12:53.130Z,1007.91
2016-05-27T09:13:53.117Z,1007.89
2016-05-27T09:14:53.105Z,1007.88
2016-05-27T09:15:53.107Z,1007.91
2016-05-27T09:16:53.094Z,1007.88
2016-05-27T09:17:53.097Z,1007.9
2016-05-27T09:18:53.069Z,1007.9
2016-05-27T09:19:53.446Z,1007.86
2016-05-27T09:20:53.058Z,1007.86
2016-05-27T09:21:53.045Z,1007.88
2016-05-27T09:22:53.031Z,1007.91
2016-05-27T09:23:53.035Z,1007.91
2016-05-27T09:24:53.023Z,1007.89
2016-05-27T09:25:53.009Z,1007.93
2016-05-27T09:26:52.997Z,1007.93
2016-05-27T09:27:52.999Z,1007.93
2016-05-27T09:28:52.986Z,1007.88
2016-05-27T09:29:52.973Z,1007.93
2016-05-27T09:30:52.960Z,1007.91
2016-05-27T09:31:52.963Z,1007.91
2016-05-27T09:32:52.950Z,1007.87
2016-05-27T09:33:52.936Z,1007.89
2016-05-27T09:34:52.924Z,1007.86
2016-05-27T09:35:53.349Z,1007.87
2016-05-27T09:36:52.914Z,1007.87
2016-05-27T09:37:52.901Z,1007.87
2016-05-27T09:38:52.888Z,1007.89
2016-05-27T09:39:52.891Z,1007.86
2016-05-27T09:40:52.940Z,1007.86
2016-05-27T09:41:52.865Z,1007.89
2016-05-27T09:42:52.852Z,1007.93
2016-05-27T09:43:52.854Z,1007.93
2016-05-27T09:44:52.841Z,1007.93
2016-05-27T09:45:52.829Z,1007.97
2016-05-27T09:46:52.831Z,1007.93
2016-05-27T09:47:52.818Z,1007.98
2016-05-27T09:48:52.806Z,1007.98
2016-05-27T09:49:52.792Z,1008
2016-05-27T09:50:52.795Z,1008.01
2016-05-27T09:51:52.782Z,1008.01
2016-05-27T09:52:52.769Z,1008.03
2016-05-27T09:53:52.756Z,1008.02
2016-05-27T09:54:52.743Z,1007.93
2016-05-27T09:55:52.746Z,1007.99
2016-05-27T09:56:52.733Z,1007.94
2016-05-27T09:57:52.720Z,1007.98
2016-05-27T09:58:52.707Z,1007.97
2016-05-27T09:59:52.711Z,1007.96
2016-05-27T10:00:52.697Z,1008
2016-05-27T10:01:52.684Z,1007.97
2016-05-27T10:02:52.671Z,1007.96
2016-05-27T10:03:52.674Z,1007.95
2016-05-27T10:04:52.660Z,1007.96
2016-05-27T10:05:52.664Z,1007.97
2016-05-27T10:06:52.651Z,1007.95
2016-05-27T10:07:52.638Z,1007.94
2016-05-27T10:08:52.624Z,1007.89
2016-05-27T10:09:52.612Z,1007.97
2016-05-27T10:10:52.614Z,1007.98
2016-05-27T10:11:52.601Z,1007.96
2016-05-27T10:12:52.605Z,1007.99
2016-05-27T10:13:52.591Z,1008
2016-05-27T10:14:52.579Z,1007.98
2016-05-27T10:15:52.565Z,1007.97
2016-05-27T10:16:52.568Z,1007.94
2016-05-27T10:17:52.555Z,1007.94
2016-05-27T10:18:52.558Z,1007.9
2016-05-27T10:19:52.529Z,1007.93
2016-05-27T10:20:52.532Z,1007.92
2016-05-27T10:21:52.519Z,1007.93
2016-05-27T10:22:52.522Z,1007.96
2016-05-27T10:23:52.509Z,1007.95
2016-05-27T10:24:52.496Z,1007.97
2016-05-27T10:25:52.498Z,1007.97
2016-05-27T10:26:52.486Z,1008.01
2016-05-27T10:27:52.473Z,1008.02
2016-05-27T10:28:52.459Z,1008.02
2016-05-27T10:29:52.462Z,1008.03
2016-05-27T10:30:52.450Z,1008.01
2016-05-27T10:31:52.436Z,1008.05
2016-05-27T10:32:52.455Z,1008.01
2016-05-27T10:33:52.427Z,1008.01
2016-05-27T10:34:52.804Z,1008.02
2016-05-27T10:35:52.416Z,1008.04
2016-05-27T10:36:52.403Z,1008.01
2016-05-27T10:37:52.390Z,1008.01
2016-05-27T10:38:52.394Z,1008.04
2016-05-27T10:39:52.380Z,1008.04
2016-05-27T10:40:52.366Z,1008.06
2016-05-27T10:41:52.370Z,1008.08
2016-05-27T10:42:52.372Z,1008.03
2016-05-27T10:43:52.360Z,1008.07
2016-05-27T10:44:52.347Z,1008.04
2016-05-27T10:45:52.349Z,1007.99
2016-05-27T10:46:52.337Z,1008.04
2016-05-27T10:47:53.792Z,1007.99
2016-05-27T10:48:52.326Z,1008.03
2016-05-27T10:49:52.312Z,1007.98
2016-05-27T10:50:52.300Z,1007.98
2016-05-27T10:51:52.304Z,1007.93
2016-05-27T10:52:52.306Z,1007.97
2016-05-27T10:53:52.292Z,1007.97
2016-05-27T10:54:52.279Z,1007.99
2016-05-27T10:55:52.282Z,1007.97
2016-05-27T10:56:52.295Z,1008.02
2016-05-27T10:57:52.324Z,1007.97
2016-05-27T10:58:52.336Z,1008.01
2016-05-27T10:59:52.349Z,1007.95
2016-05-27T11:00:52.378Z,1007.92
2016-05-27T11:01:52.374Z,1007.92
2016-05-27T11:02:52.386Z,1007.94
2016-05-27T11:03:52.585Z,1007.97
2016-05-27T11:04:52.659Z,1007.96
2016-05-27T11:05:52.391Z,1007.89
2016-05-27T11:06:52.381Z,1007.87
2016-05-27T11:07:52.387Z,1007.87
2016-05-27T11:08:52.377Z,1007.89
2016-05-27T11:09:52.383Z,1007.91
2016-05-27T11:10:52.390Z,1007.86
2016-05-27T11:11:52.378Z,1007.89
2016-05-27T11:12:52.382Z,1007.87
2016-05-27T11:13:52.369Z,1007.87
2016-05-27T11:14:52.359Z,1007.81
2016-05-27T11:15:52.394Z,1007.89
2016-05-27T11:16:52.366Z,1007.82
2016-05-27T11:17:52.353Z,1007.87
2016-05-27T11:18:52.355Z,1007.83
2016-05-27T11:19:52.875Z,1007.9
2016-05-27T11:20:53.628Z,1007.92
2016-05-27T11:21:52.349Z,1007.92
2016-05-27T11:22:52.337Z,1007.93
2016-05-27T11:23:52.324Z,1007.88
2016-05-27T11:24:52.327Z,1007.92
2016-05-27T11:25:52.331Z,1007.9
2016-05-27T11:26:52.317Z,1007.87
2016-05-27T11:27:52.320Z,1007.85
2016-05-27T11:28:52.322Z,1007.87
2016-05-27T11:29:52.310Z,1007.9
2016-05-27T11:30:52.312Z,1007.88
2016-05-27T11:31:52.315Z,1007.87
2016-05-27T11:32:52.302Z,1007.93
2016-05-27T11:33:52.304Z,1007.99
2016-05-27T11:34:52.308Z,1008.02
2016-05-27T11:35:52.310Z,1008
2016-05-27T11:36:52.312Z,1008.02
2016-05-27T11:37:52.301Z,1008
2016-05-27T11:38:52.303Z,1007.99
2016-05-27T11:39:52.306Z,1007.97
2016-05-27T11:40:53.871Z,1007.99
2016-05-27T11:41:52.311Z,1008.02
2016-05-27T11:42:52.314Z,1007.99
2016-05-27T11:43:52.317Z,1007.98
2016-05-27T11:44:52.303Z,1008.03
2016-05-27T11:45:52.306Z,1008.04
2016-05-27T11:46:52.309Z,1008.01
2016-05-27T11:47:52.311Z,1007.99
2016-05-27T11:48:52.330Z,1008.04
2016-05-27T11:49:52.317Z,1008.01
2016-05-27T11:50:52.319Z,1007.99
2016-05-27T11:51:52.323Z,1007.95
2016-05-27T11:52:52.325Z,1007.96
2016-05-27T11:53:52.343Z,1007.98
2016-05-27T11:54:52.330Z,1007.98
2016-05-27T11:55:54.192Z,1007.93
2016-05-27T11:56:52.351Z,1007.97
2016-05-27T11:57:52.354Z,1007.98
2016-05-27T11:58:52.357Z,1008
2016-05-27T11:59:52.359Z,1007.9
2016-05-27T12:00:55.097Z,1007.91
2016-05-27T12:01:52.365Z,1007.97
2016-05-27T12:02:52.368Z,1007.96
2016-05-27T12:03:52.370Z,1007.93
2016-05-27T12:04:52.748Z,1008
2016-05-27T12:05:52.391Z,1007.93
2016-05-27T12:06:52.379Z,1007.89
2016-05-27T12:07:52.396Z,1007.92
2016-05-27T12:08:52.384Z,1007.92